Time;durP1;ratioP1;P1;durP2;ratioP2;P2;SDS_P1;SDS_P2;PMS_P1;PMS_P2;Temp;Humidity;BMP_temperature;BMP_pressure;BME280_temperature;BME280_humidity;BME280_pressure;Samples;Min_cycle;Max_cycle;Signal;HPM_P1;HPM_P2
2022/10/19 00:01:40;;;;;;;13.15;11.80;;;13.20;99.90;;;;;;5074485;28;20028;-62
2022/10/19 00:04:06;;;;;;;12.10;10.90;;;13.20;99.90;;;;;;5074517;28;20013;-62
2022/10/19 00:06:34;;;;;;;12.27;10.80;;;13.10;99.90;;;;;;5074479;28;20082;-63
2022/10/19 00:09:06;;;;;;;15.15;13.38;;;13.10;99.90;;;;;;5074508;28;20040;-62
2022/10/19 00:11:34;;;;;;;14.27;12.55;;;13.10;99.90;;;;;;5074356;28;20031;-62
2022/10/19 00:14:00;;;;;;;13.63;11.38;;;13.00;99.90;;;;;;5074671;28;20016;-62
2022/10/19 00:16:29;;;;;;;12.65;11.00;;;13.00;99.90;;;;;;5074251;28;20024;-62
2022/10/19 00:18:56;;;;;;;14.52;12.90;;;13.00;99.90;;;;;;5074506;28;20020;-62
2022/10/19 00:21:22;;;;;;;13.88;11.88;;;13.00;99.90;;;;;;5074173;28;20065;-62
2022/10/19 00:23:48;;;;;;;11.43;10.23;;;12.90;99.90;;;;;;5074113;28;20028;-63
2022/10/19 00:26:14;;;;;;;13.15;11.20;;;12.90;99.90;;;;;;5074287;28;20100;-62
2022/10/19 00:28:40;;;;;;;14.68;13.18;;;12.90;99.90;;;;;;5073850;28;20538;-63
2022/10/19 00:31:08;;;;;;;13.93;12.45;;;12.80;99.90;;;;;;5073989;28;20019;-62
2022/10/19 00:33:34;;;;;;;13.45;11.77;;;12.80;99.90;;;;;;5073575;28;20024;-62
2022/10/19 00:36:01;;;;;;;12.05;10.85;;;12.80;99.90;;;;;;5074202;28;20473;-63
2022/10/19 00:38:26;;;;;;;11.40;10.20;;;12.70;99.90;;;;;;5073990;28;20082;-63
2022/10/19 00:40:52;;;;;;;17.13;15.32;;;12.70;99.90;;;;;;5073780;28;20470;-62
2022/10/19 00:43:21;;;;;;;18.88;16.80;;;12.70;99.90;;;;;;5073877;28;20028;-63
2022/10/19 00:45:47;;;;;;;17.83;15.55;;;12.60;99.90;;;;;;5073705;28;20051;-63
2022/10/19 00:48:17;;;;;;;16.48;13.80;;;12.60;99.90;;;;;;5073634;28;20031;-62
2022/10/19 00:50:44;;;;;;;14.23;12.73;;;12.50;99.90;;;;;;5073860;28;20017;-62
2022/10/19 00:53:11;;;;;;;15.82;13.27;;;12.60;99.90;;;;;;5073781;28;20017;-62
2022/10/19 00:55:38;;;;;;;19.02;15.98;;;12.50;99.90;;;;;;5073645;28;20055;-62
2022/10/19 00:58:04;;;;;;;13.77;12.38;;;12.60;99.90;;;;;;5073660;28;20016;-62
2022/10/19 01:00:32;;;;;;;14.15;12.40;;;12.50;99.90;;;;;;5073403;28;20424;-62
2022/10/19 01:02:58;;;;;;;14.10;12.30;;;12.50;99.90;;;;;;5073437;28;20032;-62
2022/10/19 01:05:25;;;;;;;13.57;11.80;;;12.60;99.90;;;;;;5073636;28;20021;-63
2022/10/19 01:07:51;;;;;;;12.77;10.35;;;12.60;99.90;;;;;;5073768;28;20021;-62
2022/10/19 01:10:22;;;;;;;12.80;11.38;;;12.60;99.90;;;;;;5073367;28;20028;-62
2022/10/19 01:13:11;;;;;;;11.02;9.93;;;12.60;99.90;;;;;;5073503;28;20363;-62
2022/10/19 01:15:43;;;;;;;11.57;10.38;;;12.60;99.90;;;;;;5073018;28;20040;-62
2022/10/19 01:18:34;;;;;;;12.55;10.65;;;12.50;99.90;;;;;;5073452;28;20077;-62
2022/10/19 01:21:20;;;;;;;10.60;9.50;;;12.50;99.90;;;;;;5073571;28;20024;-62
2022/10/19 01:24:06;;;;;;;11.57;10.32;;;12.50;99.90;;;;;;5073334;28;20051;-62
2022/10/19 01:27:00;;;;;;;14.85;11.82;;;12.50;99.90;;;;;;5073586;28;20021;-62
2022/10/19 01:29:53;;;;;;;12.55;9.65;;;12.50;99.90;;;;;;5072729;28;20123;-62
2022/10/19 01:32:33;;;;;;;20.25;14.43;;;12.50;99.90;;;;;;5073152;28;20021;-62
2022/10/19 01:35:07;;;;;;;12.68;10.27;;;12.40;99.90;;;;;;5073136;28;20028;-62
2022/10/19 01:38:08;;;;;;;13.90;11.27;;;12.30;99.90;;;;;;5073106;28;20024;-63
2022/10/19 01:41:04;;;;;;;15.82;10.45;;;12.20;99.90;;;;;;5071014;28;20032;-62
2022/10/19 01:43:42;;;;;;;11.38;9.43;;;12.30;99.90;;;;;;5061503;28;20033;-63
2022/10/19 01:46:35;;;;;;;19.55;12.50;;;12.30;99.90;;;;;;5076253;28;20024;-62
2022/10/19 01:49:22;;;;;;;9.25;8.20;;;12.30;99.90;;;;;;5077153;28;20033;-62
2022/10/19 01:51:59;;;;;;;15.75;10.60;;;12.30;99.90;;;;;;5077362;28;20104;-62
2022/10/19 01:54:29;;;;;;;12.45;11.10;;;12.40;99.90;;;;;;5077257;28;20016;-62
2022/10/19 01:57:00;;;;;;;12.07;10.27;;;12.30;99.90;;;;;;5076985;28;20020;-62
2022/10/19 01:59:27;;;;;;;16.70;13.15;;;12.30;99.90;;;;;;5076994;28;20056;-62
2022/10/19 02:01:54;;;;;;;11.65;10.45;;;12.30;99.90;;;;;;5076818;28;20378;-62
2022/10/19 02:04:22;;;;;;;11.07;9.98;;;12.30;99.90;;;;;;5076959;28;20016;-62
2022/10/19 02:06:50;;;;;;;17.48;14.05;;;12.20;99.90;;;;;;5077073;28;20024;-62
2022/10/19 02:09:19;;;;;;;19.88;17.05;;;12.30;99.90;;;;;;5076581;28;20032;-62
2022/10/19 02:11:52;;;;;;;21.77;18.23;;;12.20;99.90;;;;;;5076643;28;20387;-62
2022/10/19 02:14:24;;;;;;;24.13;19.67;;;12.20;99.90;;;;;;5076785;28;20162;-62
2022/10/19 02:17:02;;;;;;;23.88;20.33;;;12.10;99.90;;;;;;5076732;28;20482;-62
2022/10/19 02:19:27;;;;;;;23.25;19.65;;;12.00;99.90;;;;;;5076679;28;20040;-62
2022/10/19 02:21:53;;;;;;;29.60;24.60;;;11.90;99.90;;;;;;5076706;28;20020;-62
2022/10/19 02:24:19;;;;;;;25.58;21.42;;;11.80;99.90;;;;;;5076772;28;20478;-62
2022/10/19 02:26:45;;;;;;;21.30;18.50;;;11.70;99.90;;;;;;5076340;28;20437;-62
2022/10/19 02:29:14;;;;;;;19.80;15.30;;;11.70;99.90;;;;;;5075995;28;20052;-62
2022/10/19 02:31:39;;;;;;;28.50;15.15;;;11.80;99.90;;;;;;5076357;28;20021;-62
2022/10/19 02:34:06;;;;;;;14.32;12.85;;;11.90;99.90;;;;;;5076476;28;20163;-62
2022/10/19 02:36:31;;;;;;;16.45;14.00;;;12.00;99.90;;;;;;5076179;28;20031;-62
2022/10/19 02:38:57;;;;;;;14.63;11.88;;;12.00;99.90;;;;;;5076255;28;20036;-63
2022/10/19 02:41:28;;;;;;;11.98;10.45;;;12.00;99.90;;;;;;5076010;28;20095;-62
2022/10/19 02:43:59;;;;;;;11.10;9.73;;;12.00;99.90;;;;;;5076046;28;20103;-62
2022/10/19 02:46:35;;;;;;;14.15;8.55;;;12.00;99.90;;;;;;5076053;28;20024;-62
2022/10/19 02:49:03;;;;;;;18.50;16.50;;;12.10;99.90;;;;;;5076273;28;20413;-62
2022/10/19 02:51:37;;;;;;;20.65;17.23;;;12.10;99.90;;;;;;5076179;28;20028;-62
2022/10/19 02:54:05;;;;;;;18.95;16.50;;;12.00;99.90;;;;;;5075961;28;20040;-62
2022/10/19 02:56:31;;;;;;;17.48;14.38;;;11.90;99.90;;;;;;5074954;28;20142;-62
2022/10/19 02:58:56;;;;;;;22.63;19.02;;;12.00;99.90;;;;;;5075913;28;20035;-62
2022/10/19 03:01:22;;;;;;;22.65;17.75;;;11.90;99.90;;;;;;5075717;28;20024;-62
2022/10/19 03:03:48;;;;;;;18.17;15.18;;;11.80;99.90;;;;;;5075740;28;20042;-62
2022/10/19 03:06:13;;;;;;;23.02;18.45;;;11.80;99.90;;;;;;5075667;28;20021;-62
2022/10/19 03:08:39;;;;;;;22.20;18.15;;;11.80;99.90;;;;;;5075475;28;20490;-62
2022/10/19 03:11:05;;;;;;;17.67;14.52;;;11.70;99.90;;;;;;5075704;28;20043;-62
2022/10/19 03:13:30;;;;;;;24.52;17.95;;;11.80;99.90;;;;;;5075548;28;20020;-62
2022/10/19 03:15:56;;;;;;;20.48;16.90;;;11.80;99.90;;;;;;5075554;28;20021;-62
2022/10/19 03:18:22;;;;;;;17.55;15.20;;;11.80;99.90;;;;;;5075523;28;20032;-62
2022/10/19 03:20:47;;;;;;;16.27;13.32;;;11.70;99.90;;;;;;5075311;28;20029;-62
2022/10/19 03:23:13;;;;;;;16.77;13.57;;;11.80;99.90;;;;;;5075459;28;20104;-62
2022/10/19 03:25:39;;;;;;;11.30;10.15;;;11.80;99.90;;;;;;5075152;28;20020;-62
2022/10/19 03:28:04;;;;;;;11.20;9.98;;;11.90;99.90;;;;;;5074963;28;20392;-62
2022/10/19 03:30:30;;;;;;;13.82;10.32;;;11.90;99.90;;;;;;5075221;28;20032;-62
2022/10/19 03:32:55;;;;;;;11.48;9.93;;;11.90;99.90;;;;;;5075369;28;20413;-62
2022/10/19 03:35:21;;;;;;;12.98;10.65;;;11.90;99.90;;;;;;5075207;28;20024;-62
2022/10/19 03:37:47;;;;;;;9.23;8.32;;;11.90;99.90;;;;;;5074855;28;20074;-62
2022/10/19 03:40:12;;;;;;;10.15;8.93;;;11.90;99.90;;;;;;5075085;28;20483;-62
2022/10/19 03:42:38;;;;;;;18.15;12.55;;;11.90;99.90;;;;;;5074974;28;20035;-62
2022/10/19 03:45:04;;;;;;;17.30;14.38;;;11.90;99.90;;;;;;5073673;28;20063;-63
2022/10/19 03:47:29;;;;;;;16.85;13.70;;;11.90;99.90;;;;;;5074867;28;20471;-62
2022/10/19 03:49:55;;;;;;;14.07;11.85;;;11.90;99.90;;;;;;5074931;28;20032;-62
2022/10/19 03:52:21;;;;;;;19.23;14.52;;;11.80;99.90;;;;;;5074561;28;20025;-62
2022/10/19 03:54:49;;;;;;;16.65;12.23;;;11.80;99.90;;;;;;5075089;28;20096;-62
2022/10/19 03:57:15;;;;;;;12.05;10.75;;;11.70;99.90;;;;;;5074740;28;20115;-63
2022/10/19 03:59:41;;;;;;;19.25;12.32;;;11.70;99.90;;;;;;5074553;28;20051;-62
2022/10/19 04:02:07;;;;;;;24.38;16.52;;;11.80;99.90;;;;;;5074675;28;20143;-62
2022/10/19 04:04:32;;;;;;;36.28;19.40;;;11.80;99.90;;;;;;5074753;28;20493;-65
2022/10/19 04:06:58;;;;;;;25.70;19.48;;;11.70;99.90;;;;;;5074555;28;20031;-62
2022/10/19 04:09:23;;;;;;;23.38;16.23;;;11.60;99.90;;;;;;5073613;28;20086;-62
2022/10/19 04:11:49;;;;;;;15.23;13.40;;;11.50;99.90;;;;;;5074461;28;20029;-62
2022/10/19 04:14:18;;;;;;;13.60;11.63;;;11.50;99.90;;;;;;5074694;28;20055;-62
2022/10/19 04:16:43;;;;;;;13.85;11.05;;;11.60;99.90;;;;;;5074290;28;20070;-62
2022/10/19 04:19:13;;;;;;;13.20;9.93;;;11.70;99.90;;;;;;5074701;28;20024;-62
2022/10/19 04:21:40;;;;;;;58.00;13.88;;;11.70;99.90;;;;;;5074045;28;20024;-62
2022/10/19 04:24:07;;;;;;;17.65;10.93;;;11.70;99.90;;;;;;5074403;28;20024;-62
2022/10/19 04:26:36;;;;;;;30.15;13.88;;;11.60;99.90;;;;;;5074610;28;20025;-62
2022/10/19 04:29:02;;;;;;;11.32;9.52;;;11.40;99.90;;;;;;5073922;28;20044;-63
2022/10/19 04:31:28;;;;;;;11.00;9.40;;;11.40;99.90;;;;;;5073956;28;20383;-62
2022/10/19 04:33:54;;;;;;;9.20;8.30;;;11.50;99.90;;;;;;5073965;28;20028;-62
2022/10/19 04:36:20;;;;;;;11.88;9.90;;;11.50;99.90;;;;;;5073860;28;20021;-62
2022/10/19 04:38:46;;;;;;;16.27;8.90;;;11.50;99.90;;;;;;5074111;28;20028;-62
2022/10/19 04:41:15;;;;;;;11.20;8.88;;;11.50;99.90;;;;;;5073925;28;20081;-62
2022/10/19 04:43:41;;;;;;;11.18;7.85;;;11.60;99.90;;;;;;5074121;28;20029;-62
2022/10/19 04:46:12;;;;;;;20.35;11.30;;;11.60;99.90;;;;;;5073726;28;20356;-62
2022/10/19 04:48:39;;;;;;;9.38;8.48;;;11.70;99.90;;;;;;5073695;28;20514;-62
2022/10/19 04:51:05;;;;;;;9.32;8.32;;;11.70;99.90;;;;;;5073533;28;20485;-62
2022/10/19 04:53:31;;;;;;;11.60;8.38;;;11.60;99.90;;;;;;5073574;28;20016;-63
2022/10/19 04:55:57;;;;;;;12.05;10.23;;;11.60;99.90;;;;;;5073776;28;20024;-62
2022/10/19 04:58:23;;;;;;;9.82;8.82;;;11.60;99.90;;;;;;5072215;28;20078;-62
2022/10/19 05:00:49;;;;;;;21.45;11.60;;;11.60;99.90;;;;;;5073433;28;20356;-62
2022/10/19 05:03:15;;;;;;;18.85;12.73;;;11.60;99.90;;;;;;5073409;28;20025;-62
2022/10/19 05:05:40;;;;;;;17.65;11.70;;;11.60;99.90;;;;;;5073223;28;20066;-61
2022/10/19 05:08:06;;;;;;;43.13;22.02;;;11.60;99.90;;;;;;5073147;28;20028;-64
2022/10/19 05:10:32;;;;;;;17.83;14.30;;;11.60;99.90;;;;;;5071170;28;20086;-63
2022/10/19 05:13:01;;;;;;;18.02;13.02;;;11.50;99.90;;;;;;5053644;28;20033;-64
2022/10/19 05:15:27;;;;;;;13.23;11.63;;;11.50;99.90;;;;;;5073214;28;20021;-63
2022/10/19 05:17:53;;;;;;;14.55;11.93;;;11.60;99.90;;;;;;5073543;28;20059;-64
2022/10/19 05:20:19;;;;;;;14.32;11.82;;;11.60;99.90;;;;;;5072760;28;20026;-62
2022/10/19 05:22:45;;;;;;;12.52;11.18;;;11.70;99.90;;;;;;5072672;28;20024;-64
2022/10/19 05:25:10;;;;;;;12.68;11.23;;;11.70;99.90;;;;;;5071418;28;20040;-62
2022/10/19 05:27:36;;;;;;;15.30;11.13;;;11.70;99.90;;;;;;5071338;28;20021;-64
2022/10/19 05:30:03;;;;;;;23.85;11.15;;;11.70;99.90;;;;;;5086183;28;20059;-64
2022/10/19 05:32:29;;;;;;;11.50;9.98;;;11.80;99.90;;;;;;5071841;28;20074;-63
2022/10/19 05:34:54;;;;;;;12.32;9.40;;;11.80;99.90;;;;;;5072306;28;20017;-64
2022/10/19 05:37:20;;;;;;;10.80;8.93;;;11.80;99.90;;;;;;5069777;28;20395;-65
2022/10/19 05:39:46;;;;;;;14.65;9.55;;;11.80;99.90;;;;;;5054657;28;20025;-62
2022/10/19 05:42:12;;;;;;;12.68;10.05;;;11.80;99.90;;;;;;5053135;28;20017;-62
2022/10/19 05:44:37;;;;;;;11.57;9.88;;;11.80;99.90;;;;;;5052975;28;20364;-62
2022/10/19 05:47:03;;;;;;;11.77;10.07;;;11.80;99.90;;;;;;5052878;28;20025;-62
2022/10/19 05:49:29;;;;;;;13.35;11.27;;;11.80;99.90;;;;;;5058571;28;20107;-64
2022/10/19 05:51:55;;;;;;;11.45;9.90;;;11.80;99.90;;;;;;5073091;28;20116;-63
2022/10/19 05:54:20;;;;;;;13.80;11.43;;;11.80;99.90;;;;;;5072625;28;20020;-64
2022/10/19 05:56:46;;;;;;;18.75;14.27;;;11.80;99.90;;;;;;5070401;28;20029;-65
2022/10/19 05:59:17;;;;;;;20.08;15.90;;;11.90;99.90;;;;;;5072758;28;20025;-64
2022/10/19 06:01:44;;;;;;;12.73;11.43;;;11.80;99.90;;;;;;5072418;28;20386;-63
2022/10/19 06:04:12;;;;;;;20.40;16.17;;;11.80;99.90;;;;;;5067595;28;20020;-62
2022/10/19 06:06:38;;;;;;;15.00;12.80;;;11.90;99.90;;;;;;5059608;28;20041;-64
2022/10/19 06:09:04;;;;;;;14.32;11.80;;;11.90;99.90;;;;;;5052093;28;20033;-63
2022/10/19 06:11:33;;;;;;;63.55;17.88;;;12.00;99.90;;;;;;5053439;28;20035;-64
2022/10/19 06:14:01;;;;;;;21.10;12.07;;;12.10;99.90;;;;;;5068759;28;20484;-62
2022/10/19 06:16:28;;;;;;;14.88;11.38;;;12.00;99.90;;;;;;5065926;28;20017;-64
2022/10/19 06:18:54;;;;;;;14.35;10.13;;;12.00;99.90;;;;;;5065815;28;20036;-65
2022/10/19 06:21:23;;;;;;;12.40;10.23;;;12.10;99.90;;;;;;5072780;28;20033;-64
2022/10/19 06:23:57;;;;;;;10.75;9.00;;;12.20;99.90;;;;;;5070523;28;20046;-62
2022/10/19 06:26:24;;;;;;;14.00;11.18;;;12.30;99.90;;;;;;5069767;28;20031;-63
2022/10/19 06:28:53;;;;;;;9.98;8.95;;;12.40;99.90;;;;;;5065700;28;20506;-62
2022/10/19 06:31:19;;;;;;;9.98;8.85;;;12.50;99.90;;;;;;5061226;28;20043;-64
2022/10/19 06:33:46;;;;;;;12.45;9.85;;;12.60;99.90;;;;;;5063938;28;20021;-65
2022/10/19 06:36:18;;;;;;;17.35;13.00;;;12.80;99.90;;;;;;5072917;28;20035;-63
2022/10/19 06:38:45;;;;;;;10.30;9.30;;;12.80;99.90;;;;;;5065942;28;20020;-63
2022/10/19 06:41:11;;;;;;;9.38;8.48;;;12.80;99.90;;;;;;5070742;28;20044;-63
2022/10/19 06:43:37;;;;;;;11.55;9.73;;;12.90;99.90;;;;;;5071659;28;20052;-63
2022/10/19 06:46:08;;;;;;;10.75;9.65;;;12.90;99.90;;;;;;5074721;28;20110;-64
2022/10/19 06:48:34;;;;;;;12.75;9.93;;;13.00;99.90;;;;;;5071478;28;20036;-62
2022/10/19 06:51:02;;;;;;;13.30;11.80;;;13.00;99.90;;;;;;5071220;28;20028;-65
2022/10/19 06:53:29;;;;;;;16.02;13.77;;;13.00;99.90;;;;;;5064585;28;20028;-64
2022/10/19 06:55:58;;;;;;;17.90;14.77;;;12.80;99.90;;;;;;5058246;28;20032;-65
2022/10/19 06:58:24;;;;;;;30.25;19.92;;;12.80;99.90;;;;;;5068859;28;20032;-66
2022/10/19 07:00:58;;;;;;;20.55;17.15;;;12.70;99.90;;;;;;5069723;28;20020;-65
2022/10/19 07:03:25;;;;;;;15.57;13.15;;;12.70;99.90;;;;;;5072407;28;20028;-66
2022/10/19 07:05:55;;;;;;;12.77;11.38;;;12.90;99.90;;;;;;5071388;28;20074;-65
2022/10/19 07:08:21;;;;;;;13.43;11.70;;;13.20;99.90;;;;;;5069553;28;20056;-66
2022/10/19 07:10:51;;;;;;;13.15;11.55;;;13.50;99.90;;;;;;5073086;28;20052;-68
2022/10/19 07:13:17;;;;;;;16.50;13.18;;;13.80;99.90;;;;;;5071582;28;20550;-65
2022/10/19 07:15:43;;;;;;;12.68;10.93;;;14.00;99.90;;;;;;5072912;28;20115;-63
2022/10/19 07:18:08;;;;;;;13.90;11.82;;;14.20;99.90;;;;;;5073280;28;20028;-65
2022/10/19 07:20:34;;;;;;;12.75;11.48;;;14.40;99.90;;;;;;5070715;28;20028;-64
2022/10/19 07:22:59;;;;;;;12.40;11.15;;;14.70;99.90;;;;;;5071339;28;20089;-63
2022/10/19 07:25:25;;;;;;;12.32;11.07;;;15.60;99.90;;;;;;5071835;28;20033;-66
2022/10/19 07:27:51;;;;;;;13.15;11.50;;;16.90;99.90;;;;;;5072689;28;20052;-63
2022/10/19 07:30:17;;;;;;;12.73;11.43;;;18.00;95.70;;;;;;5072365;28;20032;-64
2022/10/19 07:32:42;;;;;;;11.70;10.50;;;19.00;90.10;;;;;;5072211;28;20029;-65
2022/10/19 07:35:08;;;;;;;12.27;10.98;;;19.70;79.10;;;;;;5073466;28;20036;-67
2022/10/19 07:37:34;;;;;;;13.00;11.70;;;20.20;75.80;;;;;;5069353;28;20406;-64
2022/10/19 07:39:59;;;;;;;14.27;12.77;;;20.90;70.80;;;;;;5074138;28;20029;-64
2022/10/19 07:42:29;;;;;;;15.32;13.35;;;21.70;66.70;;;;;;5072841;28;20020;-64
2022/10/19 07:44:55;;;;;;;12.77;11.48;;;22.00;61.90;;;;;;5073329;28;20398;-67
2022/10/19 07:47:20;;;;;;;12.35;11.07;;;22.30;62.10;;;;;;5072415;28;20096;-67
2022/10/19 07:49:46;;;;;;;10.80;9.80;;;22.60;60.30;;;;;;5071672;28;20071;-64
2022/10/19 07:52:12;;;;;;;11.00;10.00;;;22.90;60.10;;;;;;5068514;28;20398;-65
2022/10/19 07:54:37;;;;;;;11.18;10.07;;;23.30;58.60;;;;;;5073272;28;20085;-64
2022/10/19 07:57:03;;;;;;;10.68;9.68;;;23.90;56.00;;;;;;5073878;28;20024;-67
2022/10/19 07:59:29;;;;;;;9.45;8.55;;;24.30;55.20;;;;;;5073491;28;20440;-63
2022/10/19 08:01:55;;;;;;;9.77;8.98;;;24.80;54.00;;;;;;5073677;28;20035;-67
2022/10/19 08:04:21;;;;;;;10.90;9.90;;;25.20;53.60;;;;;;5072552;28;20051;-66
2022/10/19 08:06:47;;;;;;;14.27;12.95;;;25.70;51.30;;;;;;5070522;28;20025;-67
2022/10/19 08:09:14;;;;;;;12.73;11.50;;;25.90;50.00;;;;;;5068811;28;20429;-67
2022/10/19 08:11:39;;;;;;;14.27;12.98;;;26.00;50.30;;;;;;5074123;28;20029;-68
2022/10/19 08:14:05;;;;;;;17.30;15.70;;;26.30;49.40;;;;;;5070336;28;20074;-66
2022/10/19 08:16:39;;;;;;;19.90;17.90;;;26.50;49.20;;;;;;5070576;28;20021;-64
2022/10/19 08:19:08;;;;;;;;;;;26.40;49.40;;;;;;5070721;28;20031;-65
2022/10/19 08:21:35;;;;;;;20.02;18.02;;;25.00;50.10;;;;;;5068546;28;19912;-65
2022/10/19 08:24:01;;;;;;;20.20;18.10;;;24.00;51.80;;;;;;5056246;28;20040;-64
2022/10/19 08:26:29;;;;;;;20.20;18.17;;;23.20;53.90;;;;;;5072529;28;20485;-65
2022/10/19 08:29:03;;;;;;;27.60;24.15;;;22.40;55.60;;;;;;5070375;28;20049;-66
2022/10/19 08:31:29;;;;;;;21.98;19.73;;;21.80;57.40;;;;;;5086288;28;20036;-64
2022/10/19 08:33:55;;;;;;;23.27;20.88;;;21.10;60.70;;;;;;5076106;28;20082;-68
2022/10/19 08:36:21;;;;;;;21.10;18.88;;;20.70;61.70;;;;;;5067551;28;20039;-63
2022/10/19 08:38:47;;;;;;;19.77;17.77;;;20.10;65.20;;;;;;5069897;28;20024;-65
2022/10/19 08:41:22;;;;;;;23.75;19.98;;;20.00;66.30;;;;;;5072638;28;20024;-64
2022/10/19 08:44:16;;;;;;;19.13;17.30;;;19.90;69.20;;;;;;5072783;28;20032;-62
2022/10/19 08:47:00;;;;;;;20.45;18.27;;;19.70;78.20;;;;;;5072266;28;20028;-63
2022/10/19 08:49:29;;;;;;;20.40;18.45;;;19.60;80.80;;;;;;5068048;28;20025;-64
2022/10/19 08:52:09;;;;;;;22.58;20.17;;;19.60;78.00;;;;;;5052522;28;20086;-67
2022/10/19 08:55:00;;;;;;;21.73;19.40;;;19.90;77.20;;;;;;5056709;28;20120;-63
2022/10/19 08:57:47;;;;;;;19.67;17.65;;;19.80;79.50;;;;;;5065092;28;20067;-64
2022/10/19 09:00:35;;;;;;;20.95;18.75;;;19.90;78.70;;;;;;5053290;28;20028;-64
2022/10/19 09:03:10;;;;;;;19.27;17.27;;;20.10;77.30;;;;;;5061014;28;20549;-67
2022/10/19 09:06:07;;;;;;;19.70;17.02;;;20.20;77.50;;;;;;5059180;28;20032;-64
2022/10/19 09:08:37;;;;;;;18.83;16.30;;;20.20;79.50;;;;;;5048682;28;20445;-64
2022/10/19 09:11:03;;;;;;;19.40;17.48;;;20.40;79.20;;;;;;5057148;28;20432;-63
2022/10/19 09:13:44;;;;;;;22.67;18.17;;;20.30;81.60;;;;;;5063124;28;20036;-64
2022/10/19 09:16:16;;;;;;;19.40;17.50;;;20.40;83.20;;;;;;5077135;28;20021;-64
2022/10/19 09:18:43;;;;;;;20.90;17.75;;;20.30;86.00;;;;;;5077520;28;20659;-64
2022/10/19 09:21:12;;;;;;;19.63;17.45;;;20.20;90.80;;;;;;5065195;28;20031;-63
2022/10/19 09:23:50;;;;;;;18.33;16.40;;;20.30;91.10;;;;;;5061606;28;20021;-66
2022/10/19 09:26:20;;;;;;;17.45;15.65;;;20.60;89.60;;;;;;5070959;28;20025;-63
2022/10/19 09:28:58;;;;;;;20.42;16.92;;;21.00;88.70;;;;;;5069825;28;20041;-65
2022/10/19 09:31:31;;;;;;;18.73;16.33;;;21.40;88.90;;;;;;5070854;28;20035;-64
2022/10/19 09:34:12;;;;;;;16.65;14.88;;;21.80;86.30;;;;;;5067446;28;20524;-66
2022/10/19 09:36:42;;;;;;;21.92;17.45;;;22.10;77.60;;;;;;5066530;28;20355;-62
2022/10/19 09:39:26;;;;;;;16.75;14.70;;;22.30;78.80;;;;;;5064348;28;20024;-63
2022/10/19 09:41:51;;;;;;;;;;;22.20;76.70;;;;;;5064823;28;20035;-67
2022/10/19 09:44:17;;;;;;;16.95;14.73;;;22.00;79.00;;;;;;5061919;28;20061;-62
2022/10/19 09:46:53;;;;;;;15.48;13.93;;;21.70;81.30;;;;;;5067343;28;20035;-62
2022/10/19 09:49:46;;;;;;;19.77;13.63;;;21.40;85.30;;;;;;5063796;28;20036;-64
2022/10/19 09:52:30;;;;;;;15.45;13.27;;;21.20;87.70;;;;;;5064130;28;20490;-63
2022/10/19 09:55:14;;;;;;;16.98;15.00;;;21.20;86.60;;;;;;5067954;28;20032;-64
2022/10/19 09:57:49;;;;;;;17.73;15.73;;;21.40;83.20;;;;;;5063269;28;20028;-64
2022/10/19 10:00:24;;;;;;;17.20;14.80;;;21.50;84.50;;;;;;5066738;28;20415;-64
2022/10/19 10:02:51;;;;;;;19.67;15.68;;;21.50;87.90;;;;;;5062114;28;20027;-65
2022/10/19 10:05:18;;;;;;;22.80;18.17;;;21.70;81.90;;;;;;5065894;28;20021;-63
2022/10/19 10:08:16;;;;;;;22.05;18.33;;;21.70;78.80;;;;;;5069081;28;20028;-64
2022/10/19 10:10:52;;;;;;;18.27;16.25;;;21.60;78.70;;;;;;5086274;28;20043;-66
2022/10/19 10:13:26;;;;;;;37.35;23.33;;;21.60;84.70;;;;;;5073478;28;20036;-66
2022/10/19 10:16:00;;;;;;;25.38;19.60;;;21.10;85.60;;;;;;5063513;28;20025;-66
2022/10/19 10:18:26;;;;;;;;;;;20.90;92.60;;;;;;5071058;28;20027;-65
2022/10/19 10:20:58;;;;;;;24.77;18.85;;;21.30;88.80;;;;;;5072355;28;19916;-65
2022/10/19 10:23:28;;;;;;;25.83;18.33;;;21.50;90.70;;;;;;5071449;28;20114;-62
2022/10/19 10:25:56;;;;;;;23.38;17.92;;;21.50;83.60;;;;;;5086275;28;20135;-65
2022/10/19 10:28:24;;;;;;;26.08;19.30;;;21.50;83.00;;;;;;5067917;28;20167;-61
2022/10/19 10:30:57;;;;;;;28.40;19.50;;;21.50;82.20;;;;;;5067764;28;20028;-67
2022/10/19 10:33:26;;;;;;;25.90;18.48;;;21.50;81.40;;;;;;5071394;28;20038;-67
2022/10/19 10:35:58;;;;;;;26.70;18.48;;;21.50;84.30;;;;;;5072899;28;20024;-65
2022/10/19 10:38:32;;;;;;;22.52;17.92;;;21.40;86.10;;;;;;5072955;28;20039;-65
2022/10/19 10:41:16;;;;;;;19.25;14.77;;;21.50;87.00;;;;;;5072710;28;20035;-65
2022/10/19 10:44:02;;;;;;;17.48;13.75;;;21.60;86.40;;;;;;5066609;28;20438;-63
2022/10/19 10:46:33;;;;;;;19.17;14.48;;;21.80;85.90;;;;;;5064695;28;20024;-63
2022/10/19 10:49:01;;;;;;;20.08;14.15;;;21.80;83.80;;;;;;5063666;28;20108;-62
2022/10/19 10:51:38;;;;;;;25.35;18.70;;;21.90;83.00;;;;;;5069312;28;20437;-63
2022/10/19 10:54:21;;;;;;;23.52;17.13;;;21.90;80.00;;;;;;5065167;28;20039;-63
2022/10/19 10:57:11;;;;;;;23.42;14.80;;;22.00;82.00;;;;;;5061765;28;20016;-67
2022/10/19 11:00:11;;;;;;;18.52;14.13;;;22.00;89.20;;;;;;5066093;28;20125;-63
2022/10/19 11:02:44;;;;;;;13.27;10.68;;;21.90;88.80;;;;;;5066998;28;20028;-65
2022/10/19 11:05:22;;;;;;;10.68;8.85;;;21.70;91.20;;;;;;5066214;28;20031;-64
2022/10/19 11:07:54;;;;;;;9.40;7.53;;;21.40;92.20;;;;;;5067484;28;20394;-62
2022/10/19 11:10:34;;;;;;;8.73;7.80;;;21.50;92.70;;;;;;5068789;28;20405;-65
2022/10/19 11:13:20;;;;;;;7.97;7.28;;;21.60;94.10;;;;;;5063599;28;20039;-64
2022/10/19 11:15:58;;;;;;;7.28;6.68;;;21.90;91.50;;;;;;5071732;28;20032;-66
2022/10/19 11:18:26;;;;;;;6.80;6.22;;;22.10;92.70;;;;;;5069416;28;20017;-66
2022/10/19 11:21:10;;;;;;;7.00;6.40;;;22.10;90.20;;;;;;5072538;28;20032;-63
2022/10/19 11:23:57;;;;;;;7.35;6.72;;;22.00;89.90;;;;;;5071283;28;20017;-67
2022/10/19 11:26:25;;;;;;;6.68;6.10;;;22.00;91.70;;;;;;5070764;28;20020;-64
2022/10/19 11:28:51;;;;;;;7.00;6.30;;;22.10;93.00;;;;;;5070466;28;20048;-65
2022/10/19 11:31:26;;;;;;;5.32;4.93;;;22.20;91.00;;;;;;5071354;28;20364;-64
2022/10/19 11:34:02;;;;;;;6.45;5.95;;;22.20;90.60;;;;;;5072309;28;20020;-66
2022/10/19 11:36:59;;;;;;;6.55;5.95;;;22.30;89.00;;;;;;5067517;28;20036;-65
2022/10/19 11:39:54;;;;;;;5.80;5.40;;;22.30;83.80;;;;;;5069426;28;20059;-64
2022/10/19 11:42:44;;;;;;;7.78;7.03;;;22.40;82.50;;;;;;5071585;28;20039;-66
2022/10/19 11:45:28;;;;;;;8.00;7.20;;;22.40;87.30;;;;;;5071015;28;20024;-64
2022/10/19 11:48:13;;;;;;;7.25;6.55;;;22.40;87.50;;;;;;5060760;28;20206;-66
2022/10/19 11:51:38;;;;;;;6.75;6.15;;;22.30;81.90;;;;;;5065182;28;20033;-67
2022/10/19 11:54:09;;;;;;;7.38;6.68;;;22.40;89.00;;;;;;5099188;28;20028;-65
2022/10/19 11:56:41;;;;;;;7.50;6.28;;;22.20;85.00;;;;;;5068057;28;20040;-66
2022/10/19 11:59:29;;;;;;;6.57;5.97;;;21.90;86.60;;;;;;5063053;28;20032;-65
2022/10/19 12:02:23;;;;;;;5.32;4.88;;;21.70;90.30;;;;;;5064653;28;20024;-64
2022/10/19 12:05:08;;;;;;;7.45;6.10;;;21.60;91.90;;;;;;5064275;28;20363;-64
2022/10/19 12:08:00;;;;;;;6.22;5.72;;;21.60;92.40;;;;;;5063683;28;20498;-63
2022/10/19 12:11:02;;;;;;;6.07;5.57;;;21.60;93.60;;;;;;5064078;28;20044;-65
2022/10/19 12:13:41;;;;;;;6.30;5.70;;;21.70;94.70;;;;;;5065400;28;20020;-64
2022/10/19 12:16:09;;;;;;;6.97;6.43;;;21.80;92.30;;;;;;5072452;28;20100;-62
2022/10/19 12:18:48;;;;;;;7.95;7.15;;;22.00;92.00;;;;;;5065812;28;20490;-64
2022/10/19 12:21:28;;;;;;;6.53;6.00;;;22.20;93.70;;;;;;5066839;28;20021;-63
2022/10/19 12:23:57;;;;;;;6.22;5.72;;;22.30;92.10;;;;;;5062507;28;20070;-65
2022/10/19 12:26:24;;;;;;;7.65;6.95;;;22.30;89.20;;;;;;5060688;28;20631;-64
2022/10/19 12:28:57;;;;;;;7.60;7.00;;;22.30;87.80;;;;;;5061840;28;20052;-64
2022/10/19 12:31:25;;;;;;;5.85;5.45;;;22.00;90.70;;;;;;5067094;28;20016;-65
2022/10/19 12:34:23;;;;;;;6.55;5.95;;;22.00;93.10;;;;;;5053449;28;20039;-64
2022/10/19 12:37:13;;;;;;;7.25;6.55;;;22.00;89.30;;;;;;5056982;28;20036;-64
2022/10/19 12:40:20;;;;;;;6.15;5.65;;;22.00;89.40;;;;;;5065001;28;20107;-63
2022/10/19 12:43:06;;;;;;;7.15;6.45;;;22.30;90.80;;;;;;5070246;28;20044;-65
2022/10/19 12:45:40;;;;;;;5.53;5.03;;;22.60;87.90;;;;;;5055149;28;20502;-63
2022/10/19 12:48:11;;;;;;;6.57;5.47;;;22.70;85.00;;;;;;5069809;28;20535;-64
2022/10/19 12:50:50;;;;;;;7.05;6.38;;;23.00;86.60;;;;;;5070257;28;20035;-66
2022/10/19 12:53:37;;;;;;;6.45;5.93;;;23.20;82.70;;;;;;5071466;28;20023;-64
2022/10/19 12:56:12;;;;;;;7.22;6.63;;;23.20;80.60;;;;;;5071593;28;20016;-64